Time;durP1;ratioP1;P1;durP2;ratioP2;P2;SDS_P1;SDS_P2;PMS_P1;PMS_P2;Temp;Humidity;BMP_temperature;BMP_pressure;BME280_temperature;BME280_humidity;BME280_pressure;Samples;Min_cycle;Max_cycle;Signal;HPM_P1;HPM_P2
2024/02/17 00:00:03;;;;;;;;;13.25;11.50;;;;;-143.90;100.00;76102.66;4957165;28;102869;-72
2024/02/17 00:02:31;;;;;;;;;14.25;12.50;;;;;-143.90;100.00;76106.78;4963046;28;102869;-72
2024/02/17 00:04:58;;;;;;;;;12.25;10.25;;;;;-143.90;100.00;76102.66;4964246;28;103476;-72
2024/02/17 00:07:25;;;;;;;;;11.50;10.50;;;;;-143.90;100.00;76102.66;4965368;28;101810;-72
2024/02/17 00:09:52;;;;;;;;;9.50;8.75;;;;;-143.90;100.00;76104.72;4964548;28;101655;-72
2024/02/17 00:12:19;;;;;;;;;6.25;5.00;;;;;-143.90;100.00;76100.59;4959910;28;101579;-72
2024/02/17 00:14:45;;;;;;;;;11.25;7.25;;;;;-143.90;100.00;76098.53;4965849;28;104215;-72
2024/02/17 00:17:12;;;;;;;;;6.50;6.50;;;;;-143.90;100.00;76102.66;4946176;28;101705;-72
2024/02/17 00:19:40;;;;;;;;;9.00;8.00;;;;;-143.90;100.00;76102.66;4943751;28;101692;-72
2024/02/17 00:22:07;;;;;;;;;6.00;6.00;;;;;-143.90;100.00;76090.25;4951749;28;101730;-72
2024/02/17 00:24:33;;;;;;;;;3.00;2.25;;;;;-143.90;100.00;76084.03;4964758;28;103602;-72
2024/02/17 00:27:00;;;;;;;;;4.50;3.75;;;;;-143.90;100.00;76090.25;4964908;28;102776;-72
2024/02/17 00:29:27;;;;;;;;;9.25;7.50;;;;;-143.90;100.00;76092.31;4963298;28;101430;-72
2024/02/17 00:31:53;;;;;;;;;5.00;5.00;;;;;-143.90;100.00;76086.13;4965258;28;102024;-72
2024/02/17 00:34:20;;;;;;;;;8.50;7.25;;;;;-143.90;100.00;76086.13;4956955;28;103501;-72
2024/02/17 00:36:47;;;;;;;;;9.50;7.00;;;;;-143.90;100.00;76090.25;4977867;27;101621;-71
2024/02/17 00:39:14;;;;;;;;;10.50;8.75;;;;;-143.90;100.00;76096.44;4966356;28;103202;-72
2024/02/17 00:41:42;;;;;;;;;9.00;8.00;;;;;-143.90;100.00;76100.59;4965747;28;104288;-72
2024/02/17 00:44:09;;;;;;;;;9.00;9.00;;;;;-143.90;100.00;76102.66;4955111;28;103482;-71
2024/02/17 00:46:36;;;;;;;;;6.25;4.00;;;;;-143.90;100.00;76106.78;4962700;28;105427;-72
2024/02/17 00:49:02;;;;;;;;;9.25;7.75;;;;;-143.90;100.00;76113.00;4939301;28;102866;-72
2024/02/17 00:51:29;;;;;;;;;13.50;9.75;;;;;-143.90;100.00;76110.94;4964266;28;101607;-72
2024/02/17 00:53:56;;;;;;;;;8.75;8.25;;;;;-143.90;100.00;76106.78;4957221;28;103594;-72
2024/02/17 00:56:23;;;;;;;;;7.50;6.00;;;;;-143.90;100.00;76108.84;4958162;28;101997;-73
2024/02/17 00:58:50;;;;;;;;;8.50;7.00;;;;;-143.90;100.00;76115.06;4962167;28;101989;-73
2024/02/17 01:01:17;;;;;;;;;7.25;6.50;;;;;-143.90;100.00;76115.06;4959331;28;101650;-72
2024/02/17 01:04:00;;;;;;;;;9.75;8.25;;;;;-143.90;100.00;76121.28;4946483;28;107811;-72
2024/02/17 01:06:27;;;;;;;;;8.50;8.50;;;;;-143.90;100.00;76129.53;4959847;28;101924;-72
2024/02/17 01:08:54;;;;;;;;;10.50;9.00;;;;;-143.90;100.00;76135.75;4965312;28;102068;-72
2024/02/17 01:11:21;;;;;;;;;11.25;10.50;;;;;-143.90;100.00;76139.88;4957234;28;101960;-72
2024/02/17 01:13:48;;;;;;;;;12.25;10.00;;;;;-143.90;100.00;76137.81;4958429;28;103270;-72
2024/02/17 01:16:15;;;;;;;;;7.25;7.25;;;;;-143.90;100.00;76150.22;4954021;28;103396;-73
2024/02/17 01:18:42;;;;;;;;;11.50;10.25;;;;;-143.90;100.00;76150.22;4955420;28;101719;-72
2024/02/17 01:21:09;;;;;;;;;12.00;11.50;;;;;-143.90;100.00;76156.41;4957237;28;101789;-72
2024/02/17 01:23:36;;;;;;;;;4.50;4.50;;;;;-143.90;100.00;76162.63;4958941;28;103328;-72
2024/02/17 01:26:03;;;;;;;;;5.50;5.50;;;;;-143.90;100.00;76156.41;4968088;28;102828;-72
2024/02/17 01:28:29;;;;;;;;;6.75;6.50;;;;;-143.90;100.00;76162.63;4959379;28;103233;-72
2024/02/17 01:30:56;;;;;;;;;9.25;9.25;;;;;-143.90;100.00;76164.69;4962591;28;102000;-72
2024/02/17 01:33:23;;;;;;;;;11.00;8.00;;;;;-143.90;100.00;76160.56;4956929;28;103358;-73
2024/02/17 01:35:49;;;;;;;;;8.75;7.00;;;;;-143.90;100.00;76164.69;4956728;28;102518;-72
2024/02/17 01:38:16;;;;;;;;;3.25;3.00;;;;;-143.90;100.00;76164.69;4951099;28;104851;-72
2024/02/17 01:40:43;;;;;;;;;4.00;3.00;;;;;-143.90;100.00;76172.97;4955983;28;102203;-73
2024/02/17 01:43:10;;;;;;;;;8.00;7.00;;;;;-143.90;100.00;76168.81;4951589;28;106200;-72
2024/02/17 01:45:36;;;;;;;;;3.75;3.00;;;;;-143.90;100.00;76179.16;4958052;28;102902;-72
2024/02/17 01:48:04;;;;;;;;;4.25;4.25;;;;;-143.90;100.00;76177.09;4945469;28;101642;-72
2024/02/17 01:50:31;;;;;;;;;4.50;3.75;;;;;-143.90;100.00;76172.97;4959852;28;102512;-73
2024/02/17 01:52:59;;;;;;;;;3.00;3.00;;;;;-143.90;100.00;76172.97;4958017;28;103484;-72
2024/02/17 01:55:26;;;;;;;;;4.00;3.75;;;;;-143.90;100.00;76177.09;4956871;27;103261;-72
2024/02/17 01:57:54;;;;;;;;;6.75;5.50;;;;;-143.90;100.00;76168.81;4977956;27;102433;-73
2024/02/17 02:00:21;;;;;;;;;7.75;7.75;;;;;-143.90;100.00;76181.25;4955445;27;104564;-72
2024/02/17 02:02:49;;;;;;;;;16.75;14.00;;;;;-143.90;100.00;76168.81;4957288;28;103653;-73
2024/02/17 02:05:17;;;;;;;;;14.00;11.25;;;;;-143.90;100.00;76177.09;4946398;28;101694;-72
2024/02/17 02:07:44;;;;;;;;;20.50;17.75;;;;;-143.90;100.00;76164.69;4955755;28;101736;-72
2024/02/17 02:10:10;;;;;;;;;17.25;16.75;;;;;-143.90;100.00;76162.63;4952251;28;101626;-72
2024/02/17 02:12:37;;;;;;;;;18.00;15.75;;;;;-143.90;100.00;76156.41;4960663;28;103366;-72
2024/02/17 02:15:06;;;;;;;;;20.50;19.00;;;;;-143.90;100.00;76156.41;4957862;28;101475;-72
2024/02/17 02:17:33;;;;;;;;;22.00;19.75;;;;;-143.90;100.00;76154.34;4959459;28;102020;-71
2024/02/17 02:20:00;;;;;;;;;20.50;17.25;;;;;-143.90;100.00;76150.22;4948369;28;101885;-72
2024/02/17 02:22:27;;;;;;;;;18.75;16.75;;;;;-143.90;100.00;76135.75;4960249;28;103909;-71
2024/02/17 02:24:57;;;;;;;;;23.25;20.50;;;;;-143.90;100.00;76131.59;4958946;28;101953;-72
2024/02/17 02:27:25;;;;;;;;;23.75;20.50;;;;;-143.90;100.00;76123.34;4956435;28;102645;-72
2024/02/17 02:29:59;;;;;;;;;23.00;20.00;;;;;-143.90;100.00;76119.19;4961763;28;102000;-72
2024/02/17 02:32:26;;;;;;;;;27.75;19.75;;;;;-143.90;100.00;76106.78;4944437;28;108162;-72
2024/02/17 02:34:54;;;;;;;;;24.50;21.00;;;;;-143.90;100.00;76098.53;4959860;28;101906;-72
2024/02/17 02:37:27;;;;;;;;;30.75;22.25;;;;;-143.90;100.00;76086.13;4959869;28;101630;-72
2024/02/17 02:39:53;;;;;;;;;24.75;21.00;;;;;-143.90;100.00;76073.72;4960615;28;101764;-72
2024/02/17 02:42:20;;;;;;;;;22.00;20.50;;;;;-143.90;100.00;76073.72;4951015;28;107946;-72
2024/02/17 02:44:47;;;;;;;;;27.25;22.75;;;;;-143.90;100.00;76061.31;4962064;28;101891;-72
2024/02/17 02:47:14;;;;;;;;;24.50;19.75;;;;;-143.90;100.00;76053.03;4958441;27;102026;-71
2024/02/17 02:49:41;;;;;;;;;21.25;17.50;;;;;-143.90;100.00;76053.03;4950867;28;103013;-71
2024/02/17 02:52:08;;;;;;;;;24.50;20.50;;;;;-143.90;100.00;76050.97;4949258;28;103392;-71
2024/02/17 02:54:34;;;;;;;;;26.50;23.25;;;;;-143.90;100.00;76053.03;4961989;28;101984;-71
2024/02/17 02:57:01;;;;;;;;;24.00;21.25;;;;;-143.90;100.00;76053.03;4962052;28;101999;-71
2024/02/17 02:59:28;;;;;;;;;33.75;28.25;;;;;-143.90;100.00;76055.09;4963547;28;101865;-71
2024/02/17 03:01:55;;;;;;;;;23.75;20.75;;;;;-143.90;100.00;76053.03;4960807;28;103814;-72
2024/02/17 03:04:21;;;;;;;;;23.75;19.75;;;;;-143.90;100.00;76057.16;4953628;28;102423;-72
2024/02/17 03:06:48;;;;;;;;;24.00;19.00;;;;;-143.90;100.00;76055.09;4959702;28;101971;-72
2024/02/17 03:09:15;;;;;;;;;18.00;15.50;;;;;-143.90;100.00;76053.03;4962268;28;101786;-72
2024/02/17 03:11:42;;;;;;;;;24.00;16.00;;;;;-143.90;100.00;76065.44;4963410;28;103323;-72
2024/02/17 03:14:09;;;;;;;;;12.50;12.00;;;;;-143.90;100.00;76067.50;4951913;28;102181;-72
2024/02/17 03:16:39;;;;;;;;;12.75;11.75;;;;;-143.90;100.00;76065.44;4964139;28;104522;-72
2024/02/17 03:19:06;;;;;;;;;11.75;11.25;;;;;-143.90;100.00;76069.56;4959991;28;101864;-71
2024/02/17 03:21:33;;;;;;;;;12.00;11.00;;;;;-143.90;100.00;76069.56;4959805;28;103347;-72
2024/02/17 03:24:03;;;;;;;;;8.00;7.00;;;;;-143.90;100.00;76073.72;4953296;28;103446;-71
2024/02/17 03:26:30;;;;;;;;;14.00;12.50;;;;;-143.90;100.00;76081.97;4963007;28;102198;-72
2024/02/17 03:28:56;;;;;;;;;17.00;13.00;;;;;-143.90;100.00;76094.38;4964587;27;101827;-72
2024/02/17 03:31:23;;;;;;;;;12.50;11.00;;;;;-143.90;100.00;76102.66;4958196;28;103365;-72
2024/02/17 03:33:54;;;;;;;;;15.25;11.50;;;;;-143.90;100.00;76096.44;4959975;28;101776;-72
2024/02/17 03:36:22;;;;;;;;;14.00;13.00;;;;;-143.90;100.00;76104.72;4956691;28;101895;-72
2024/02/17 03:38:49;;;;;;;;;17.00;15.00;;;;;-143.90;100.00;76104.72;4963014;28;101525;-72
2024/02/17 03:41:15;;;;;;;;;16.00;13.50;;;;;-143.90;100.00;76106.78;4959011;28;103397;-72
2024/02/17 03:43:42;;;;;;;;;22.75;17.00;;;;;-143.90;100.00;76108.84;4959291;28;102190;-72
2024/02/17 03:46:09;;;;;;;;;24.25;19.25;;;;;-143.90;100.00;76113.00;4954139;28;102002;-72
2024/02/17 03:48:35;;;;;;;;;19.25;18.00;;;;;-143.90;100.00;76110.94;4961543;28;101872;-72
2024/02/17 03:51:03;;;;;;;;;20.00;18.50;;;;;-143.90;100.00;76102.66;4951786;28;103482;-72
2024/02/17 03:53:30;;;;;;;;;19.75;15.00;;;;;-143.90;100.00;76104.72;4950411;28;101705;-72
2024/02/17 03:55:57;;;;;;;;;20.00;17.50;;;;;-143.90;100.00;76102.66;4958151;28;103182;-72
2024/02/17 03:58:23;;;;;;;;;19.50;19.00;;;;;-143.90;100.00;76098.53;4952525;28;102305;-73
2024/02/17 04:00:50;;;;;;;;;6.25;4.00;;;;;-143.90;100.00;76096.44;4960825;28;103652;-73
2024/02/17 04:03:17;;;;;;;;;27.75;21.75;;;;;-143.90;100.00;76084.03;4959768;28;103039;-73
2024/02/17 04:05:44;;;;;;;;;25.25;19.00;;;;;-143.90;100.00;76086.13;4961600;28;101952;-73
2024/02/17 04:08:10;;;;;;;;;18.00;15.25;;;;;-143.90;100.00;76090.25;4957444;28;101891;-73
2024/02/17 04:10:37;;;;;;;;;22.00;17.75;;;;;-143.90;100.00;76090.25;4960640;28;103537;-73
2024/02/17 04:13:04;;;;;;;;;22.25;16.50;;;;;-143.90;100.00;76086.13;4959111;28;101876;-73
2024/02/17 04:15:31;;;;;;;;;19.00;14.50;;;;;-143.90;100.00;76090.25;4958723;28;102180;-73
2024/02/17 04:17:57;;;;;;;;;23.25;18.00;;;;;-143.90;100.00;76081.97;4960412;28;101817;-73
2024/02/17 04:20:24;;;;;;;;;10.50;8.00;;;;;-143.90;100.00;76084.03;4958873;28;103336;-73
2024/02/17 04:22:51;;;;;;;;;16.50;13.00;;;;;-143.90;100.00;76081.97;4964479;28;101821;-73
2024/02/17 04:25:18;;;;;;;;;13.75;13.25;;;;;-143.90;100.00;76075.78;4962085;28;103008;-73
2024/02/17 04:27:44;;;;;;;;;17.25;13.50;;;;;-143.90;100.00;76079.91;4961214;28;101914;-73
2024/02/17 04:30:12;;;;;;;;;12.75;11.75;;;;;-143.90;100.00;76079.91;4955075;28;103448;-73
2024/02/17 04:32:38;;;;;;;;;11.00;10.75;;;;;-143.90;100.00;76079.91;4978174;28;101981;-73
2024/02/17 04:35:05;;;;;;;;;9.75;9.50;;;;;-143.90;100.00;76073.72;4964647;28;101558;-73
2024/02/17 04:37:32;;;;;;;;;8.75;8.00;;;;;-143.90;100.00;76077.84;4964293;28;101905;-73
2024/02/17 04:40:00;;;;;;;;;14.25;12.75;;;;;-143.90;100.00;76084.03;4959818;28;103429;-73
2024/02/17 04:42:26;;;;;;;;;11.00;9.25;;;;;-143.90;100.00;76084.03;4957396;28;102685;-73
2024/02/17 04:44:53;;;;;;;;;12.25;10.50;;;;;-143.90;100.00;76081.97;4960705;28;101847;-73
2024/02/17 04:47:20;;;;;;;;;11.00;9.50;;;;;-143.90;100.00;76077.84;4963452;28;103139;-73
2024/02/17 04:49:46;;;;;;;;;10.00;9.75;;;;;-143.90;100.00;76077.84;4962796;28;103541;-73
2024/02/17 04:52:13;;;;;;;;;17.25;13.75;;;;;-143.90;100.00;76077.84;4958105;28;104986;-72
2024/02/17 04:54:39;;;;;;;;;12.25;11.25;;;;;-143.90;100.00;76073.72;4936805;28;102133;-72
2024/02/17 04:57:06;;;;;;;;;10.25;9.00;;;;;-143.90;100.00;76067.50;4963742;28;101706;-73
2024/02/17 04:59:33;;;;;;;;;14.25;10.00;;;;;-143.90;100.00;76071.63;4962810;28;107918;-72
2024/02/17 05:02:00;;;;;;;;;13.00;11.25;;;;;-143.90;100.00;76077.84;4955008;28;101579;-72
2024/02/17 05:04:27;;;;;;;;;13.75;13.50;;;;;-143.90;100.00;76086.13;4958460;28;102097;-73
2024/02/17 05:06:55;;;;;;;;;15.25;10.50;;;;;-143.90;100.00;76079.91;4956785;28;101742;-73
2024/02/17 05:09:21;;;;;;;;;13.25;10.25;;;;;-143.90;100.00;76077.84;4957309;28;103341;-72
2024/02/17 05:11:48;;;;;;;;;12.25;10.00;;;;;-143.90;100.00;76079.91;4955432;28;107040;-73
2024/02/17 05:14:19;;;;;;;;;12.25;9.50;;;;;-143.90;100.00;76079.91;4948476;28;102951;-73
2024/02/17 05:16:45;;;;;;;;;13.00;9.75;;;;;-143.90;100.00;76077.84;4959282;28;102298;-73
2024/02/17 05:19:13;;;;;;;;;10.50;9.00;;;;;-143.90;100.00;76067.50;4961396;28;103465;-73
2024/02/17 05:21:43;;;;;;;;;9.25;7.25;;;;;-143.90;100.00;76073.72;4959914;28;102002;-73
2024/02/17 05:24:11;;;;;;;;;12.75;12.00;;;;;-143.90;100.00;76092.31;4951665;28;101905;-72
2024/02/17 05:26:39;;;;;;;;;15.50;13.50;;;;;-143.90;100.00;76090.25;4964316;28;101694;-73
2024/02/17 05:29:06;;;;;;;;;14.00;13.00;;;;;-143.90;100.00;76092.31;4963935;28;108555;-72
2024/02/17 05:31:35;;;;;;;;;13.50;13.00;;;;;-143.90;100.00;76092.31;4966028;28;101643;-73
2024/02/17 05:34:02;;;;;;;;;14.25;14.00;;;;;-143.90;100.00;76098.53;4976732;28;101926;-72
2024/02/17 05:36:30;;;;;;;;;13.00;12.00;;;;;-143.90;100.00;76098.53;4965254;28;101647;-72
2024/02/17 05:38:56;;;;;;;;;9.00;7.50;;;;;-143.90;100.00;76098.53;4961629;28;103360;-72
2024/02/17 05:41:24;;;;;;;;;12.00;12.00;;;;;-143.90;100.00;76094.38;4962990;28;101582;-73
2024/02/17 05:43:51;;;;;;;;;7.50;6.00;;;;;-143.90;100.00;76102.66;4960365;28;102039;-73
2024/02/17 05:46:17;;;;;;;;;7.00;7.00;;;;;-143.90;100.00;76102.66;4958996;28;101977;-72
2024/02/17 05:48:44;;;;;;;;;12.50;11.50;;;;;-143.90;100.00;76102.66;4961423;28;103411;-72
2024/02/17 05:51:11;;;;;;;;;9.00;8.75;;;;;-143.90;100.00;76102.66;4964371;28;104056;-72
2024/02/17 05:53:39;;;;;;;;;9.50;8.75;;;;;-143.90;100.00;76102.66;4960600;28;101654;-71
2024/02/17 05:56:06;;;;;;;;;16.00;14.00;;;;;-143.90;98.63;76102.66;4954330;28;101646;-72
2024/02/17 05:58:34;;;;;;;;;13.50;12.00;;;;;-143.90;99.23;76098.53;4960187;28;108074;-73
2024/02/17 06:01:01;;;;;;;;;16.25;13.50;;;;;-143.90;98.51;76098.53;4957624;28;101612;-72
2024/02/17 06:03:28;;;;;;;;;13.00;10.75;;;;;-143.90;96.75;76096.44;4958899;28;101733;-73
2024/02/17 06:05:55;;;;;;;;;14.00;11.25;;;;;-143.90;95.43;76090.25;4961774;28;102409;-73
2024/02/17 06:08:22;;;;;;;;;18.25;16.00;;;;;-143.90;91.86;76081.97;4952517;28;103357;-72
2024/02/17 06:10:48;;;;;;;;;22.25;20.00;;;;;-143.90;91.07;76081.97;4965172;28;102095;-73
2024/02/17 06:13:15;;;;;;;;;17.75;16.25;;;;;-143.90;89.51;76077.84;4962518;28;102650;-72
2024/02/17 06:15:43;;;;;;;;;24.00;17.75;;;;;-143.90;88.21;76067.50;4964390;28;101546;-73
2024/02/17 06:21:10;;;;;;;;;15.00;13.50;;;;;-143.90;86.52;76055.09;4961037;28;101497;-73
2024/02/17 06:23:38;;;;;;;;;16.25;14.75;;;;;-143.90;84.82;76048.88;4958661;28;102624;-73
2024/02/17 06:26:05;;;;;;;;;20.25;18.25;;;;;-143.90;83.36;76042.69;4958240;28;102225;-73
2024/02/17 06:28:32;;;;;;;;;18.25;15.00;;;;;-143.90;82.33;76040.63;4958726;28;103679;-73
2024/02/17 06:30:58;;;;;;;;;17.50;14.75;;;;;-143.90;81.36;76030.28;4975434;28;101918;-73
2024/02/17 06:33:30;;;;;;;;;19.50;14.75;;;;;-143.90;80.61;76024.06;4961911;28;102054;-72
2024/02/17 06:35:57;;;;;;;;;17.00;15.50;;;;;-143.90;79.16;76017.88;4961755;28;103519;-73
2024/02/17 06:38:24;;;;;;;;;16.50;15.25;;;;;-143.90;79.03;76015.81;4933280;28;103787;-72
2024/02/17 06:40:51;;;;;;;;;16.75;13.75;;;;;-143.90;78.47;76015.81;4949404;28;102125;-72
2024/02/17 06:43:17;;;;;;;;;21.25;19.25;;;;;-143.90;77.85;76017.88;4911937;28;103663;-72
2024/02/17 06:45:45;;;;;;;;;25.00;20.25;;;;;-143.90;77.23;76009.59;4915533;28;102630;-73
2024/02/17 06:48:12;;;;;;;;;22.25;21.25;;;;;-143.90;77.25;76015.81;4903727;28;104004;-72
2024/02/17 06:50:38;;;;;;;;;30.25;25.25;;;;;-143.90;76.68;76007.53;4915895;28;103111;-73
2024/02/17 06:53:05;;;;;;;;;21.00;18.25;;;;;-143.90;75.99;76003.41;4929648;28;102448;-72
2024/02/17 06:55:32;;;;;;;;;21.50;16.50;;;;;-143.90;75.37;76003.41;4941514;28;103117;-72
2024/02/17 06:57:58;;;;;;;;;24.75;20.25;;;;;-143.90;74.82;75986.84;4908679;28;104865;-72
2024/02/17 07:00:25;;;;;;;;;22.50;20.25;;;;;-143.90;74.20;75978.59;4923976;28;102555;-72
2024/02/17 07:02:52;;;;;;;;;21.75;20.25;;;;;-143.90;73.22;75980.66;4943753;28;102641;-72
2024/02/17 07:05:19;;;;;;;;;23.50;21.00;;;;;-143.90;73.80;75978.59;4956112;28;102024;-72
2024/02/17 07:07:45;;;;;;;;;24.25;20.75;;;;;-143.90;72.54;75976.53;4958492;28;103409;-72
2024/02/17 07:10:12;;;;;;;;;15.25;9.50;;;;;-143.90;72.96;75970.31;4955705;28;104893;-72
2024/02/17 07:12:38;;;;;;;;;22.00;19.75;;;;;-143.90;71.50;75972.38;4960341;28;101503;-72
2024/02/17 07:15:05;;;;;;;;;18.50;18.00;;;;;-143.90;72.47;75974.44;4960582;28;101742;-72
2024/02/17 07:17:32;;;;;;;;;26.25;21.25;;;;;-143.90;73.31;75974.44;4959479;28;103591;-73
2024/02/17 07:19:59;;;;;;;;;25.25;21.00;;;;;-143.90;72.40;75976.53;4956956;28;102197;-72
2024/02/17 07:22:26;;;;;;;;;20.00;15.00;;;;;-143.90;73.09;75978.59;4961323;28;102369;-72
2024/02/17 07:24:53;;;;;;;;;22.25;21.00;;;;;-143.90;72.53;75982.72;4962775;28;102081;-72
2024/02/17 07:27:20;;;;;;;;;27.25;22.00;;;;;-143.90;72.38;75991.00;4961844;28;103189;-71
2024/02/17 07:29:47;;;;;;;;;22.75;21.75;;;;;-143.90;72.03;75995.13;4959528;28;102189;-72
2024/02/17 07:32:14;;;;;;;;;21.25;20.50;;;;;-143.90;72.43;75982.72;4950043;28;102933;-72
2024/02/17 07:34:43;;;;;;;;;26.50;25.50;;;;;-143.90;72.31;75991.00;4960462;27;101691;-72
2024/02/17 07:37:10;;;;;;;;;20.50;18.00;;;;;-143.90;73.22;75995.13;4957187;27;107919;-72
2024/02/17 07:39:38;;;;;;;;;24.50;20.50;;;;;-143.90;74.85;75999.25;4962612;28;101660;-72
2024/02/17 07:42:06;;;;;;;;;20.50;18.00;;;;;-143.90;76.44;76011.66;4957874;27;101917;-72
2024/02/17 07:44:35;;;;;;;;;26.00;20.50;;;;;-143.90;76.77;76015.81;4963345;28;101354;-72
2024/02/17 07:47:03;;;;;;;;;23.50;20.25;;;;;-143.90;80.22;76028.22;4962457;28;103386;-72
2024/02/17 07:49:32;;;;;;;;;21.25;18.50;;;;;-143.90;84.05;76032.34;4961228;28;101854;-72
2024/02/17 07:51:59;;;;;;;;;19.50;17.00;;;;;-143.90;86.76;76040.63;4958764;27;102671;-71
2024/02/17 07:54:26;;;;;;;;;16.00;15.25;;;;;-143.90;88.20;76053.03;4959052;28;101979;-72
2024/02/17 07:56:53;;;;;;;;;25.00;23.00;;;;;-143.90;90.76;76075.78;4961150;28;103420;-71
2024/02/17 07:59:19;;;;;;;;;23.50;21.00;;;;;-143.90;93.47;76086.13;4962614;28;101795;-72
2024/02/17 08:01:46;;;;;;;;;25.25;23.00;;;;;-143.90;96.15;76100.59;4959969;28;101666;-72
2024/02/17 08:04:13;;;;;;;;;29.25;26.00;;;;;-143.90;100.00;76106.78;4959673;28;101507;-72
2024/02/17 08:06:39;;;;;;;;;37.00;26.25;;;;;-143.90;100.00;76123.34;4962360;28;107834;-72
2024/02/17 08:09:07;;;;;;;;;25.25;20.75;;;;;-143.90;100.00;76117.13;4962416;28;101850;-72
2024/02/17 08:11:35;;;;;;;;;17.25;14.00;;;;;-143.90;100.00;76160.56;4962914;28;101835;-72
2024/02/17 08:14:04;;;;;;;;;33.50;28.00;;;;;-143.90;100.00;76177.09;4957536;28;102182;-72
2024/02/17 08:16:31;;;;;;;;;33.00;29.75;;;;;-143.90;100.00;76195.72;4965163;28;103479;-72
2024/02/17 08:18:58;;;;;;;;;38.00;34.00;;;;;-143.90;100.00;76206.06;4980455;28;101593;-72
2024/02/17 08:21:25;;;;;;;;;26.75;23.00;;;;;-143.90;100.00;76203.97;4960652;28;101392;-72
2024/02/17 08:23:52;;;;;;;;;28.75;24.00;;;;;-143.90;100.00;76199.84;4965898;28;101899;-72
2024/02/17 08:26:20;;;;;;;;;23.00;21.00;;;;;-143.90;100.00;76199.84;4956898;28;103405;-72
2024/02/17 08:28:46;;;;;;;;;20.50;19.75;;;;;-143.90;100.00;76197.78;4962642;28;101984;-71
2024/02/17 08:31:13;;;;;;;;;26.25;20.50;;;;;-143.90;100.00;76206.06;4965668;28;101905;-71
2024/02/17 08:33:39;;;;;;;;;29.00;26.75;;;;;-143.90;100.00;76230.88;4961464;28;101783;-72
2024/02/17 08:36:06;;;;;;;;;26.75;25.00;;;;;-143.90;100.00;76228.81;4938386;28;103332;-72
2024/02/17 08:38:33;;;;;;;;;26.00;21.25;;;;;-143.90;100.00;76226.72;4962514;28;101556;-72
2024/02/17 08:41:03;;;;;;;;;25.75;23.75;;;;;-143.90;100.00;76235.00;4958035;28;101595;-72
2024/02/17 08:43:30;;;;;;;;;22.25;19.75;;;;;-143.90;100.00;76224.66;4962392;28;102649;-71
2024/02/17 08:45:56;;;;;;;;;23.75;18.00;;;;;-143.90;100.00;76214.31;4960528;28;103802;-71
2024/02/17 08:48:23;;;;;;;;;18.50;17.00;;;;;-143.90;100.00;76214.31;4953825;28;101780;-72
2024/02/17 08:50:51;;;;;;;;;21.75;19.50;;;;;-143.90;100.00;76222.59;4959474;28;101787;-71
2024/02/17 08:53:18;;;;;;;;;28.75;23.25;;;;;-143.90;100.00;76218.47;4963444;28;101996;-71
2024/02/17 08:55:45;;;;;;;;;32.75;29.25;;;;;-143.90;100.00;76232.94;4975991;28;103931;-71
2024/02/17 08:58:11;;;;;;;;;38.50;28.00;;;;;-143.90;100.00;76230.88;4958556;28;101839;-72
2024/02/17 09:00:39;;;;;;;;;33.75;28.75;;;;;-143.90;100.00;76232.94;4956411;28;103561;-71
2024/02/17 09:03:06;;;;;;;;;27.50;23.75;;;;;-143.90;100.00;76230.88;4954373;28;102544;-71
2024/02/17 09:05:35;;;;;;;;;32.25;26.00;;;;;-143.90;100.00;76230.88;4990001;28;103371;-71
2024/02/17 09:08:02;;;;;;;;;28.50;23.50;;;;;-143.90;100.00;76230.88;4964981;28;104557;-71
2024/02/17 09:10:29;;;;;;;;;23.75;18.75;;;;;-143.90;100.00;76226.72;4966726;28;102035;-71
2024/02/17 09:12:56;;;;;;;;;24.25;19.75;;;;;-143.90;100.00;76226.72;4956746;28;102464;-71
2024/02/17 09:15:23;;;;;;;;;23.00;20.00;;;;;-143.90;100.00;76216.41;4957824;28;103711;-71
2024/02/17 09:17:50;;;;;;;;;21.25;19.00;;;;;-143.90;100.00;76214.31;4965158;28;101505;-71
2024/02/17 09:20:17;;;;;;;;;26.25;25.25;;;;;-143.90;100.00;76222.59;4962029;28;102015;-71
2024/02/17 09:22:44;;;;;;;;;29.25;23.75;;;;;-143.90;100.00;76232.94;4953554;28;102201;-71
2024/02/17 09:25:10;;;;;;;;;26.00;22.25;;;;;-143.90;100.00;76228.81;4946219;28;103546;-72
2024/02/17 09:27:37;;;;;;;;;29.75;23.00;;;;;-143.90;100.00;76230.88;4961318;28;101768;-70
2024/02/17 09:30:04;;;;;;;;;38.50;31.75;;;;;-143.90;100.00;76255.69;4965136;28;101817;-70
2024/02/17 09:32:31;;;;;;;;;41.75;35.00;;;;;-143.90;100.00;76270.16;4969212;28;102151;-71
2024/02/17 09:34:58;;;;;;;;;40.25;34.50;;;;;-143.90;100.00;76263.97;4958033;28;108155;-70
2024/02/17 09:37:25;;;;;;;;;31.00;26.25;;;;;-143.90;100.00;76255.69;4967718;28;101574;-71
2024/02/17 09:39:52;;;;;;;;;33.75;26.50;;;;;-143.90;100.00;76243.28;4964651;27;101936;-71
2024/02/17 09:42:19;;;;;;;;;33.50;30.00;;;;;-143.90;100.00;76247.41;4968827;27;101690;-71
2024/02/17 09:44:46;;;;;;;;;38.75;35.50;;;;;-143.90;100.00;76259.81;4966288;27;103573;-71
2024/02/17 09:47:12;;;;;;;;;33.75;29.25;;;;;-143.90;100.00;76251.53;4976065;28;101795;-71
2024/02/17 09:49:40;;;;;;;;;33.25;29.00;;;;;-143.90;100.00;76239.13;4966899;28;101889;-71
2024/02/17 09:52:08;;;;;;;;;29.25;25.75;;;;;-143.90;100.00;76216.41;4967924;28;101745;-71
2024/02/17 09:54:37;;;;;;;;;28.75;26.25;;;;;-143.90;100.00;76218.47;4966085;28;103563;-71
2024/02/17 09:57:05;;;;;;;;;38.50;31.25;;;;;-143.90;100.00;76228.81;4959259;28;104109;-69
2024/02/17 09:59:32;;;;;;;;;39.25;32.75;;;;;-143.90;100.00;76237.06;4969017;28;101841;-70
2024/02/17 10:01:59;;;;;;;;;37.75;30.50;;;;;-143.90;100.00;76239.13;4969569;28;101753;-70
2024/02/17 10:04:26;;;;;;;;;48.00;38.00;;;;;-143.90;100.00;76274.28;4981069;28;103446;-70
2024/02/17 10:07:00;;;;;;;;;31.50;25.75;;;;;-143.90;100.00;76259.81;4960177;28;101521;-70
2024/02/17 10:09:28;;;;;;;;;36.00;33.75;;;;;-143.90;100.00;76266.03;4968389;28;104671;-70
2024/02/17 10:11:58;;;;;;;;;36.00;29.75;;;;;-143.90;100.00;76270.16;4966197;28;101928;-71
2024/02/17 10:14:27;;;;;;;;;42.00;35.50;;;;;-143.90;100.00;76278.44;4966197;28;103396;-71
2024/02/17 10:17:00;;;;;;;;;32.50;27.25;;;;;-143.90;100.00;76280.50;4960288;28;101701;-69
2024/02/17 10:19:28;;;;;;;;;44.00;34.50;;;;;-143.90;100.00;76280.50;4965159;28;103846;-71
2024/02/17 10:21:55;;;;;;;;;35.00;30.50;;;;;-143.90;100.00;76272.22;4962468;28;102639;-70
2024/02/17 10:24:22;;;;;;;;;35.25;28.50;;;;;-143.90;100.00;76272.22;4963850;28;103386;-72
2024/02/17 10:26:53;;;;;;;;;33.25;28.50;;;;;-143.90;100.00;76272.22;4961017;27;101395;-72
2024/02/17 10:29:20;;;;;;;;;31.00;27.50;;;;;-143.90;100.00;76255.69;4965554;27;101534;-71
2024/02/17 10:31:49;;;;;;;;;31.25;28.75;;;;;-143.90;100.00;76243.28;4965620;28;101912;-72
2024/02/17 10:34:16;;;;;;;;;25.50;21.00;;;;;-143.90;100.00;76235.00;4965010;27;103481;-70
2024/02/17 10:36:43;;;;;;;;;24.50;20.25;;;;;-143.90;100.00;76228.81;4965366;27;104095;-72
2024/02/17 10:39:13;;;;;;;;;36.25;31.25;;;;;-143.90;100.00;76251.53;4958502;28;101502;-71
2024/02/17 10:41:40;;;;;;;;;37.00;34.25;;;;;-143.90;100.00;76253.63;4965303;28;101668;-71
2024/02/17 10:44:07;;;;;;;;;39.75;31.75;;;;;-143.90;100.00;76263.97;4966342;28;103581;-72
2024/02/17 10:46:37;;;;;;;;;27.75;25.50;;;;;-143.90;100.00;76259.81;4966679;28;101889;-71
2024/02/17 10:49:30;;;;;;;;;47.50;36.00;;;;;-143.90;100.00;76280.50;4957830;28;101884;-70
2024/02/17 10:52:03;;;;;;;;;34.00;30.75;;;;;-143.90;100.00;76278.44;4961730;28;101563;-70
2024/02/17 10:54:52;;;;;;;;;33.75;27.50;;;;;-143.90;100.00;76284.63;4966033;28;108007;-69